Time;durP1;ratioP1;P1;durP2;ratioP2;P2;SDS_P1;SDS_P2;PMS_P1;PMS_P2;Temp;Humidity;BMP_temperature;BMP_pressure;BME280_temperature;BME280_humidity;BME280_pressure;Samples;Min_cycle;Max_cycle;Signal;HPM_P1;HPM_P2
2021/06/28 00:00:12;;;;;;;3.92;3.08;;;;;;;;;;5051251;28;20420;-90
2021/06/28 00:02:40;;;;;;;6.18;3.33;;;;;;;;;;5042396;28;20052;-91
2021/06/28 00:05:11;;;;;;;4.32;3.22;;;;;;;;;;5050424;28;20444;-91
2021/06/28 00:07:40;;;;;;;5.13;2.70;;;;;;;;;;5050871;28;20135;-91
2021/06/28 00:10:12;;;;;;;3.65;3.05;;;;;;;;;;5051939;28;20059;-93
2021/06/28 00:12:41;;;;;;;5.85;3.28;;;;;;;;;;5051815;28;20458;-93
2021/06/28 00:18:11;;;;;;;4.50;2.85;;;;;;;;;;5034040;28;20056;-92
2021/06/28 00:20:41;;;;;;;5.35;3.00;;;;;;;;;;5048104;28;20493;-92
2021/06/28 00:23:10;;;;;;;5.43;3.17;;;;;;;;;;5056306;28;20476;-91
2021/06/28 00:25:38;;;;;;;6.75;3.20;;;;;;;;;;5053676;28;20055;-90
2021/06/28 00:28:10;;;;;;;4.18;3.08;;;;;;;;;;5054879;28;20505;-91
2021/06/28 00:30:55;;;;;;;4.80;2.88;;;;;;;;;;5050953;28;20155;-90
2021/06/28 00:36:08;;;;;;;3.00;2.50;;;;;;;;;;5050695;28;20051;-91
2021/06/28 00:38:36;;;;;;;3.10;2.47;;;;;;;;;;5060584;28;20138;-92
2021/06/28 00:41:08;;;;;;;6.90;3.08;;;;;;;;;;5058304;28;20064;-91
2021/06/28 00:43:36;;;;;;;3.75;2.90;;;;;;;;;;5036493;28;20053;-90
2021/06/28 00:46:05;;;;;;;4.45;2.80;;;;;;;;;;5050601;28;20523;-90
2021/06/28 00:48:35;;;;;;;3.40;2.92;;;;;;;;;;5032082;28;20049;-90
2021/06/28 00:51:04;;;;;;;4.35;2.45;;;;;;;;;;5051536;28;20132;-92
2021/06/28 00:53:33;;;;;;;4.28;2.47;;;;;;;;;;5029975;28;20124;-91
2021/06/28 00:56:10;;;;;;;3.65;2.40;;;;;;;;;;5050156;28;20053;-91
2021/06/28 00:58:40;;;;;;;5.82;2.80;;;;;;;;;;5050316;28;20128;-92
2021/06/28 01:01:09;;;;;;;3.75;2.30;;;;;;;;;;5048511;28;20461;-91
2021/06/28 01:03:39;;;;;;;3.80;2.72;;;;;;;;;;5075915;22;20053;-66
2021/06/28 01:06:10;;;;;;;5.00;2.40;;;;;;;;;;5045483;28;20481;-66
2021/06/28 01:08:39;;;;;;;3.53;2.58;;;;;;;;;;5042557;28;20084;-66
2021/06/28 01:11:07;;;;;;;5.50;2.42;;;;;;;;;;5039268;28;20103;-66
2021/06/28 01:13:36;;;;;;;3.78;2.50;;;;;;;;;;5041323;28;20040;-66
2021/06/28 01:16:05;;;;;;;4.22;3.10;;;;;;;;;;5044293;28;20499;-66
2021/06/28 01:18:33;;;;;;;2.67;2.40;;;;;;;;;;5053427;28;20045;-66
2021/06/28 01:21:03;;;;;;;3.55;2.58;;;;;;;;;;5030549;28;20136;-66
2021/06/28 01:23:34;;;;;;;4.05;2.60;;;;;;;;;;5029148;28;20619;-67
2021/06/28 01:26:04;;;;;;;6.97;2.80;;;;;;;;;;5028735;28;20091;-66
2021/06/28 01:28:32;;;;;;;2.90;2.50;;;;;;;;;;5031349;28;20050;-66
2021/06/28 01:31:01;;;;;;;5.40;2.60;;;;;;;;;;5041655;28;20048;-66
2021/06/28 01:33:30;;;;;;;6.38;2.70;;;;;;;;;;5032627;28;20076;-66
2021/06/28 01:35:59;;;;;;;4.82;2.50;;;;;;;;;;5045726;28;20140;-66
2021/06/28 01:38:27;;;;;;;5.70;2.42;;;;;;;;;;5039097;28;20139;-66
2021/06/28 01:40:57;;;;;;;5.25;2.50;;;;;;;;;;5049702;28;20603;-66
2021/06/28 01:43:25;;;;;;;3.95;2.58;;;;;;;;;;5031538;28;20067;-66
2021/06/28 01:45:54;;;;;;;3.78;2.67;;;;;;;;;;5034813;28;20079;-66
2021/06/28 01:48:22;;;;;;;4.13;2.60;;;;;;;;;;5035564;28;20137;-66
2021/06/28 01:50:51;;;;;;;3.75;2.25;;;;;;;;;;5030120;28;20054;-66
2021/06/28 01:53:20;;;;;;;4.43;2.35;;;;;;;;;;5032406;28;20212;-66
2021/06/28 01:55:48;;;;;;;4.43;2.58;;;;;;;;;;5029695;28;20585;-66
2021/06/28 01:58:18;;;;;;;3.60;2.47;;;;;;;;;;5034008;28;20085;-66
2021/06/28 02:00:48;;;;;;;2.22;2.00;;;;;;;;;;5033796;28;20100;-66
2021/06/28 02:03:17;;;;;;;4.20;2.17;;;;;;;;;;5033726;28;20056;-67
2021/06/28 02:05:47;;;;;;;5.93;2.00;;;;;;;;;;5033627;28;20125;-66
2021/06/28 02:08:16;;;;;;;3.35;1.88;;;;;;;;;;5039503;28;20155;-66
2021/06/28 02:10:46;;;;;;;4.00;2.55;;;;;;;;;;5041945;28;20508;-66
2021/06/28 02:13:14;;;;;;;9.20;2.22;;;;;;;;;;5033618;28;20116;-66
2021/06/28 02:15:44;;;;;;;4.88;2.20;;;;;;;;;;5041920;28;20124;-66
2021/06/28 02:18:13;;;;;;;3.55;1.90;;;;;;;;;;5041824;28;20128;-66
2021/06/28 02:20:41;;;;;;;8.18;2.28;;;;;;;;;;5033978;28;20133;-66
2021/06/28 02:23:23;;;;;;;3.17;2.13;;;;;;;;;;5034169;28;20564;-66
2021/06/28 02:25:54;;;;;;;6.43;2.40;;;;;;;;;;5032455;28;20128;-66
2021/06/28 02:28:22;;;;;;;3.80;2.00;;;;;;;;;;5034723;28;20088;-66
2021/06/28 02:30:53;;;;;;;4.15;2.42;;;;;;;;;;5036814;28;20077;-66
2021/06/28 02:33:22;;;;;;;4.80;2.40;;;;;;;;;;5044964;28;20096;-67
2021/06/28 02:35:51;;;;;;;4.95;2.10;;;;;;;;;;5032494;28;20133;-66
2021/06/28 02:38:20;;;;;;;5.88;2.50;;;;;;;;;;5052449;28;20072;-66
2021/06/28 02:40:48;;;;;;;2.28;1.75;;;;;;;;;;5047421;28;20064;-66
2021/06/28 02:43:16;;;;;;;4.43;2.10;;;;;;;;;;5033429;28;20465;-66
2021/06/28 02:45:45;;;;;;;2.38;1.98;;;;;;;;;;5036890;28;20081;-66
2021/06/28 02:48:14;;;;;;;2.53;1.85;;;;;;;;;;5049267;28;20060;-66
2021/06/28 02:50:43;;;;;;;3.58;1.88;;;;;;;;;;5040516;28;20056;-67
2021/06/28 02:53:12;;;;;;;4.30;2.20;;;;;;;;;;5050398;28;20057;-66
2021/06/28 02:55:41;;;;;;;3.95;2.05;;;;;;;;;;5040889;28;20477;-66
2021/06/28 02:58:09;;;;;;;3.75;1.98;;;;;;;;;;5032788;28;20079;-66
2021/06/28 03:00:37;;;;;;;4.00;2.00;;;;;;;;;;5033984;28;20076;-66
2021/06/28 03:03:06;;;;;;;4.10;1.92;;;;;;;;;;5033418;28;20129;-66
2021/06/28 03:05:36;;;;;;;3.10;1.70;;;;;;;;;;5032627;28;20072;-66
2021/06/28 03:08:06;;;;;;;3.72;1.90;;;;;;;;;;5035924;28;20122;-66
2021/06/28 03:10:35;;;;;;;3.30;2.20;;;;;;;;;;5033032;28;20124;-66
2021/06/28 03:13:04;;;;;;;3.13;1.85;;;;;;;;;;5032915;28;20042;-66
2021/06/28 03:15:32;;;;;;;4.97;2.05;;;;;;;;;;5044843;28;20055;-65
2021/06/28 03:18:01;;;;;;;4.18;2.15;;;;;;;;;;5039624;28;20486;-66
2021/06/28 03:20:30;;;;;;;5.40;1.90;;;;;;;;;;5036797;28;20060;-66
2021/06/28 03:22:59;;;;;;;3.55;2.20;;;;;;;;;;5047705;28;20128;-66
2021/06/28 03:25:28;;;;;;;5.43;1.98;;;;;;;;;;5032631;28;20470;-67
2021/06/28 03:27:56;;;;;;;4.63;2.00;;;;;;;;;;5042016;28;20148;-66
2021/06/28 03:30:24;;;;;;;5.88;2.30;;;;;;;;;;5045671;28;20087;-66
2021/06/28 03:32:53;;;;;;;3.97;2.20;;;;;;;;;;5032273;28;20088;-66
2021/06/28 03:35:21;;;;;;;2.55;2.10;;;;;;;;;;5036696;28;20052;-66
2021/06/28 03:37:50;;;;;;;4.78;2.00;;;;;;;;;;5034097;28;20578;-66
2021/06/28 03:40:19;;;;;;;3.60;1.88;;;;;;;;;;5035848;28;20160;-67
2021/06/28 03:42:47;;;;;;;4.07;2.08;;;;;;;;;;5031760;28;20558;-66
2021/06/28 03:45:16;;;;;;;5.43;2.17;;;;;;;;;;5033463;28;20528;-66
2021/06/28 03:47:45;;;;;;;6.40;2.28;;;;;;;;;;5036175;28;20128;-66
2021/06/28 03:50:14;;;;;;;3.22;1.85;;;;;;;;;;5043198;28;20048;-67
2021/06/28 03:52:42;;;;;;;3.10;1.90;;;;;;;;;;5035807;28;20041;-67
2021/06/28 03:55:12;;;;;;;7.40;2.22;;;;;;;;;;5044192;28;20135;-66
2021/06/28 03:57:41;;;;;;;3.45;2.25;;;;;;;;;;5050199;28;20124;-66
2021/06/28 04:00:11;;;;;;;5.03;2.53;;;;;;;;;;5046829;28;20158;-65
2021/06/28 04:02:41;;;;;;;2.45;2.03;;;;;;;;;;5044705;28;20227;-65
2021/06/28 04:05:10;;;;;;;3.75;2.03;;;;;;;;;;5045515;28;20055;-65
2021/06/28 04:07:38;;;;;;;4.43;2.08;;;;;;;;;;5046870;28;20088;-65
2021/06/28 04:10:09;;;;;;;3.90;1.88;;;;;;;;;;5038774;28;20053;-65
2021/06/28 04:12:38;;;;;;;4.55;2.00;;;;;;;;;;5036031;28;20050;-65
2021/06/28 04:15:10;;;;;;;3.97;2.20;;;;;;;;;;5038394;28;20458;-67
2021/06/28 04:17:39;;;;;;;5.20;2.53;;;;;;;;;;5040155;28;20443;-65
2021/06/28 04:20:08;;;;;;;4.78;2.10;;;;;;;;;;5031160;28;20095;-65
2021/06/28 04:22:36;;;;;;;6.10;2.42;;;;;;;;;;5038889;28;20120;-65
2021/06/28 04:25:06;;;;;;;2.72;2.03;;;;;;;;;;5037006;28;20136;-68
2021/06/28 04:27:34;;;;;;;6.63;1.92;;;;;;;;;;5034644;28;20073;-66
2021/06/28 04:30:03;;;;;;;4.88;1.88;;;;;;;;;;5033710;28;20259;-66
2021/06/28 04:32:35;;;;;;;6.18;2.35;;;;;;;;;;5033980;28;20144;-66
2021/06/28 04:35:04;;;;;;;3.85;2.00;;;;;;;;;;5027594;28;20045;-66
2021/06/28 04:37:32;;;;;;;3.30;2.17;;;;;;;;;;5030189;28;20056;-66
2021/06/28 04:40:01;;;;;;;5.20;1.92;;;;;;;;;;5027800;28;20053;-67
2021/06/28 04:42:29;;;;;;;5.97;1.92;;;;;;;;;;5028421;28;20132;-67
2021/06/28 04:44:58;;;;;;;4.93;2.00;;;;;;;;;;5028609;28;20049;-67
2021/06/28 04:47:26;;;;;;;3.85;1.95;;;;;;;;;;5040153;28;20421;-67
2021/06/28 04:50:01;;;;;;;3.88;2.00;;;;;;;;;;5029709;28;20050;-66
2021/06/28 04:52:29;;;;;;;4.35;1.90;;;;;;;;;;5038430;28;20045;-66
2021/06/28 04:54:57;;;;;;;5.78;2.25;;;;;;;;;;5032575;28;20049;-67
2021/06/28 04:57:26;;;;;;;3.53;1.88;;;;;;;;;;5026354;28;20057;-67
2021/06/28 04:59:54;;;;;;;4.65;2.10;;;;;;;;;;5037900;28;20055;-67
2021/06/28 05:02:24;;;;;;;4.60;1.85;;;;;;;;;;5040028;28;20053;-66
2021/06/28 05:04:53;;;;;;;2.17;1.90;;;;;;;;;;5037195;28;20140;-67
2021/06/28 05:07:23;;;;;;;9.32;2.65;;;;;;;;;;5039612;28;20566;-66
2021/06/28 05:09:51;;;;;;;5.15;2.85;;;;;;;;;;5029666;28;20099;-68
2021/06/28 05:12:20;;;;;;;6.43;2.58;;;;;;;;;;5029243;28;20053;-67
2021/06/28 05:14:48;;;;;;;5.80;2.28;;;;;;;;;;5029717;28;20128;-65
2021/06/28 05:17:16;;;;;;;3.13;2.15;;;;;;;;;;5032199;28;20140;-67
2021/06/28 05:19:45;;;;;;;12.50;2.40;;;;;;;;;;5041406;28;20045;-65
2021/06/28 05:22:14;;;;;;;6.22;2.00;;;;;;;;;;5037702;28;20100;-67
2021/06/28 05:24:43;;;;;;;4.43;2.63;;;;;;;;;;5028481;28;20148;-66
2021/06/28 05:27:11;;;;;;;5.35;3.25;;;;;;;;;;5029380;28;20184;-65
2021/06/28 05:29:40;;;;;;;10.18;3.35;;;;;;;;;;5046067;28;20450;-66
2021/06/28 05:32:08;;;;;;;9.38;3.03;;;;;;;;;;5034792;28;20474;-65
2021/06/28 05:34:37;;;;;;;6.95;2.72;;;;;;;;;;5029545;28;20060;-65
2021/06/28 05:37:06;;;;;;;5.07;2.88;;;;;;;;;;5030086;28;20048;-66
2021/06/28 05:39:34;;;;;;;7.30;3.20;;;;;;;;;;5030446;28;20620;-66
2021/06/28 05:42:05;;;;;;;6.63;2.63;;;;;;;;;;5028971;28;20540;-66
2021/06/28 05:44:33;;;;;;;4.88;3.30;;;;;;;;;;5037487;28;20064;-66
2021/06/28 05:47:01;;;;;;;3.95;2.97;;;;;;;;;;5046236;28;20059;-65
2021/06/28 05:49:30;;;;;;;7.70;3.13;;;;;;;;;;5039450;28;20416;-66
2021/06/28 05:51:59;;;;;;;4.28;3.30;;;;;;;;;;5035822;28;20038;-65
2021/06/28 05:54:27;;;;;;;7.45;3.00;;;;;;;;;;5033871;28;20140;-66
2021/06/28 05:56:56;;;;;;;4.20;3.08;;;;;;;;;;5044592;28;20144;-66
2021/06/28 05:59:25;;;;;;;6.10;3.03;;;;;;;;;;5030473;28;20137;-65
2021/06/28 06:01:54;;;;;;;4.97;3.22;;;;;;;;;;5035526;28;20052;-66
2021/06/28 06:04:22;;;;;;;4.80;2.60;;;;;;;;;;5035739;28;20068;-65
2021/06/28 06:06:50;;;;;;;7.93;3.05;;;;;;;;;;5030394;28;20072;-66
2021/06/28 06:09:19;;;;;;;6.05;2.95;;;;;;;;;;5034906;28;20063;-68
2021/06/28 06:11:47;;;;;;;8.10;3.58;;;;;;;;;;5035240;28;20048;-67
2021/06/28 06:14:16;;;;;;;4.10;2.83;;;;;;;;;;5034721;28;20559;-67
2021/06/28 06:16:46;;;;;;;7.20;3.38;;;;;;;;;;5030636;28;20096;-67
2021/06/28 06:19:14;;;;;;;10.43;3.92;;;;;;;;;;5043145;28;20080;-68
2021/06/28 06:21:44;;;;;;;6.03;3.72;;;;;;;;;;5042670;28;20056;-67
2021/06/28 06:24:13;;;;;;;6.50;3.20;;;;;;;;;;5046696;28;20248;-68
2021/06/28 06:26:41;;;;;;;3.72;3.08;;;;;;;;;;5029586;28;20164;-66
2021/06/28 06:29:10;;;;;;;3.80;2.78;;;;;;;;;;5043658;28;20052;-66
2021/06/28 06:31:38;;;;;;;8.25;3.70;;;;;;;;;;5042050;28;20397;-66
2021/06/28 06:34:08;;;;;;;6.63;3.05;;;;;;;;;;5037273;28;20354;-66
2021/06/28 06:36:37;;;;;;;8.13;3.80;;;;;;;;;;5026346;28;20433;-66
2021/06/28 06:39:05;;;;;;;4.18;3.33;;;;;;;;;;5034683;28;20045;-70
2021/06/28 06:41:34;;;;;;;5.60;3.70;;;;;;;;;;5038627;28;20155;-66
2021/06/28 06:44:02;;;;;;;7.03;3.85;;;;;;;;;;5030893;28;20076;-68
2021/06/28 06:46:31;;;;;;;6.05;3.40;;;;;;;;;;5036700;28;20051;-66
2021/06/28 06:48:59;;;;;;;5.70;3.03;;;;;;;;;;5045620;28;20122;-67
2021/06/28 06:51:30;;;;;;;5.72;3.40;;;;;;;;;;5035088;28;20079;-66
2021/06/28 06:53:58;;;;;;;4.68;3.22;;;;;;;;;;5046454;28;20493;-67
2021/06/28 06:56:27;;;;;;;4.57;2.90;;;;;;;;;;5038788;28;20441;-67
2021/06/28 06:58:55;;;;;;;4.20;2.92;;;;;;;;;;5032765;28;20088;-67
2021/06/28 07:01:23;;;;;;;6.13;3.30;;;;;;;;;;5043415;28;20128;-66
2021/06/28 07:03:52;;;;;;;5.60;3.10;;;;;;;;;;5033585;28;20099;-67
2021/06/28 07:06:21;;;;;;;4.15;2.80;;;;;;;;;;5033968;28;20045;-66
2021/06/28 07:08:51;;;;;;;7.00;2.75;;;;;;;;;;5035910;28;20114;-66
2021/06/28 07:11:20;;;;;;;3.70;2.22;;;;;;;;;;5030788;28;20108;-68
2021/06/28 07:13:50;;;;;;;5.25;2.92;;;;;;;;;;5032970;28;20386;-67
2021/06/28 07:16:19;;;;;;;4.82;2.50;;;;;;;;;;5037649;28;20055;-66
2021/06/28 07:18:48;;;;;;;4.38;2.55;;;;;;;;;;5034150;28;20091;-66
2021/06/28 07:21:16;;;;;;;3.65;2.78;;;;;;;;;;5047989;28;20060;-67
2021/06/28 07:23:48;;;;;;;3.97;2.88;;;;;;;;;;5035226;28;20129;-68
2021/06/28 07:26:19;;;;;;;2.85;2.58;;;;;;;;;;5032271;28;20049;-67
2021/06/28 07:28:47;;;;;;;5.25;3.05;;;;;;;;;;5028438;28;20143;-67
2021/06/28 07:31:16;;;;;;;8.45;2.80;;;;;;;;;;5034361;28;20096;-67
2021/06/28 07:33:45;;;;;;;3.92;2.60;;;;;;;;;;5032366;28;20124;-67
2021/06/28 07:36:16;;;;;;;4.82;2.92;;;;;;;;;;5027171;28;20493;-66
2021/06/28 07:38:45;;;;;;;5.43;3.08;;;;;;;;;;5028866;28;20052;-67
2021/06/28 07:41:14;;;;;;;7.35;3.58;;;;;;;;;;5041082;28;20148;-67
2021/06/28 07:43:44;;;;;;;4.80;2.90;;;;;;;;;;5035523;28;20052;-67
2021/06/28 07:46:13;;;;;;;4.10;2.65;;;;;;;;;;5041261;28;20057;-66
2021/06/28 07:48:43;;;;;;;3.85;2.40;;;;;;;;;;5032610;28;20079;-68
2021/06/28 07:51:12;;;;;;;4.88;2.50;;;;;;;;;;5030357;28;20536;-68
2021/06/28 07:53:43;;;;;;;3.67;2.50;;;;;;;;;;5033870;28;20050;-69
2021/06/28 07:56:17;;;;;;;3.92;2.67;;;;;;;;;;5037809;28;20068;-70
2021/06/28 07:58:48;;;;;;;3.75;2.58;;;;;;;;;;5044122;28;20092;-71
2021/06/28 08:01:17;;;;;;;3.70;2.30;;;;;;;;;;5061230;28;20048;-70
2021/06/28 08:03:47;;;;;;;6.03;2.70;;;;;;;;;;5049884;28;20056;-70
2021/06/28 08:06:16;;;;;;;5.35;3.00;;;;;;;;;;5037086;28;20593;-69
2021/06/28 08:08:46;;;;;;;4.57;2.60;;;;;;;;;;5033623;28;20057;-71
2021/06/28 08:11:14;;;;;;;8.60;2.75;;;;;;;;;;5028246;28;20061;-74
2021/06/28 08:13:45;;;;;;;5.78;2.40;;;;;;;;;;5033415;28;20049;-70
2021/06/28 08:16:15;;;;;;;2.97;2.63;;;;;;;;;;5032514;28;20497;-74
2021/06/28 08:18:47;;;;;;;3.65;2.80;;;;;;;;;;5037680;28;20115;-73
2021/06/28 08:21:33;;;;;;;4.82;2.60;;;;;;;;;;5028107;28;20068;-71
2021/06/28 08:24:02;;;;;;;5.40;1.98;;;;;;;;;;5030557;28;20068;-70
2021/06/28 08:26:32;;;;;;;4.88;2.47;;;;;;;;;;5037619;28;20060;-69
2021/06/28 08:29:03;;;;;;;3.00;2.30;;;;;;;;;;5029552;28;20416;-65
2021/06/28 08:31:33;;;;;;;7.13;2.40;;;;;;;;;;5041999;28;20141;-64
2021/06/28 08:34:13;;;;;;;4.90;2.20;;;;;;;;;;5041583;28;20519;-66
2021/06/28 08:36:44;;;;;;;3.85;2.10;;;;;;;;;;5039947;28;20485;-68
2021/06/28 08:39:12;;;;;;;4.38;2.20;;;;;;;;;;5041040;28;20055;-64
2021/06/28 08:41:43;;;;;;;4.50;2.50;;;;;;;;;;5033420;28;20080;-67
2021/06/28 08:44:13;;;;;;;4.07;2.38;;;;;;;;;;5037003;28;20049;-65
2021/06/28 08:46:43;;;;;;;3.22;2.35;;;;;;;;;;5049432;28;20055;-68
2021/06/28 08:49:12;;;;;;;3.47;2.45;;;;;;;;;;5039513;28;20049;-70
2021/06/28 08:51:41;;;;;;;6.32;2.40;;;;;;;;;;5038276;28;20049;-68
2021/06/28 08:54:11;;;;;;;6.18;2.13;;;;;;;;;;5032004;28;20111;-67
2021/06/28 08:56:40;;;;;;;3.53;2.20;;;;;;;;;;5034209;28;20080;-72
2021/06/28 08:59:12;;;;;;;8.30;2.45;;;;;;;;;;5035644;28;20045;-64
2021/06/28 09:01:42;;;;;;;4.18;2.30;;;;;;;;;;5026750;28;20053;-64
2021/06/28 09:04:11;;;;;;;5.40;2.45;;;;;;;;;;5038280;28;20056;-72
2021/06/28 09:06:40;;;;;;;5.78;2.28;;;;;;;;;;5031997;28;20037;-67
2021/06/28 09:09:10;;;;;;;5.10;3.30;;;;;;;;;;5028737;28;20459;-68
2021/06/28 09:11:40;;;;;;;4.20;2.20;;;;;;;;;;5026151;28;20167;-75
2021/06/28 09:14:10;;;;;;;2.35;2.15;;;;;;;;;;5032208;28;20060;-70
2021/06/28 09:16:39;;;;;;;3.72;2.38;;;;;;;;;;5037769;28;20067;-67
2021/06/28 09:19:12;;;;;;;3.47;2.83;;;;;;;;;;5031766;28;20124;-66
2021/06/28 09:21:42;;;;;;;2.40;2.20;;;;;;;;;;5032532;28;20115;-71
2021/06/28 09:24:24;;;;;;;2.97;2.22;;;;;;;;;;5028615;28;20042;-68
2021/06/28 09:26:54;;;;;;;5.13;2.38;;;;;;;;;;5039182;28;20045;-66
2021/06/28 09:29:33;;;;;;;3.72;2.25;;;;;;;;;;5036625;28;20050;-65
2021/06/28 09:32:09;;;;;;;2.10;1.80;;;;;;;;;;5040526;28;20057;-65
2021/06/28 09:34:39;;;;;;;2.67;2.03;;;;;;;;;;5029005;28;20563;-66
2021/06/28 09:37:12;;;;;;;2.60;1.95;;;;;;;;;;5046975;28;20052;-65
2021/06/28 09:39:41;;;;;;;6.22;1.75;;;;;;;;;;5031405;28;20425;-65
2021/06/28 09:42:14;;;;;;;4.72;1.85;;;;;;;;;;5026030;28;20374;-68
2021/06/28 09:44:43;;;;;;;2.40;1.80;;;;;;;;;;5030807;28;20103;-68
2021/06/28 09:47:13;;;;;;;2.95;1.75;;;;;;;;;;5044393;28;20138;-67
2021/06/28 09:49:59;;;;;;;3.70;2.00;;;;;;;;;;5035368;28;20049;-67
2021/06/28 09:52:31;;;;;;;1.95;1.85;;;;;;;;;;5041572;28;20077;-69
2021/06/28 09:55:12;;;;;;;3.70;1.88;;;;;;;;;;5029979;28;20127;-65
2021/06/28 09:57:40;;;;;;;3.22;2.10;;;;;;;;;;5036696;28;20084;-65
2021/06/28 10:00:22;;;;;;;2.60;2.00;;;;;;;;;;5024533;28;20056;-65
2021/06/28 10:02:51;;;;;;;2.22;1.90;;;;;;;;;;5042545;28;20064;-68
2021/06/28 10:05:23;;;;;;;2.83;1.90;;;;;;;;;;5043698;28;20098;-65
2021/06/28 10:07:54;;;;;;;2.10;1.50;;;;;;;;;;5031243;28;20492;-67
2021/06/28 10:10:26;;;;;;;2.67;1.67;;;;;;;;;;5029603;28;20052;-67
2021/06/28 10:13:03;;;;;;;2.17;1.80;;;;;;;;;;5030308;28;20132;-72
2021/06/28 10:15:32;;;;;;;2.05;1.30;;;;;;;;;;5048028;28;20052;-66
2021/06/28 10:18:00;;;;;;;1.95;1.50;;;;;;;;;;5052044;28;20048;-68
2021/06/28 10:20:32;;;;;;;1.48;1.30;;;;;;;;;;5037384;28;20122;-66
2021/06/28 10:23:02;;;;;;;2.00;1.80;;;;;;;;;;5036329;28;20077;-66
2021/06/28 10:25:30;;;;;;;2.20;1.70;;;;;;;;;;5047769;28;20496;-66
2021/06/28 10:27:59;;;;;;;1.83;1.38;;;;;;;;;;5043904;28;20405;-65
2021/06/28 10:30:34;;;;;;;1.50;1.40;;;;;;;;;;5039420;28;20041;-70
2021/06/28 10:33:07;;;;;;;3.33;1.50;;;;;;;;;;5046145;28;20057;-66
2021/06/28 10:35:38;;;;;;;2.58;1.40;;;;;;;;;;5035125;28;20145;-66
2021/06/28 10:38:08;;;;;;;1.63;1.40;;;;;;;;;;5033099;28;20049;-73
2021/06/28 10:40:47;;;;;;;2.72;1.38;;;;;;;;;;5044555;28;20040;-65
2021/06/28 10:43:26;;;;;;;1.40;1.30;;;;;;;;;;5046399;28;20580;-69
2021/06/28 10:45:55;;;;;;;2.10;1.27;;;;;;;;;;5029489;28;20560;-65
2021/06/28 10:48:24;;;;;;;1.30;1.20;;;;;;;;;;5034399;28;20102;-64
2021/06/28 10:50:58;;;;;;;1.58;1.05;;;;;;;;;;5028106;28;20123;-68
2021/06/28 10:53:46;;;;;;;3.83;1.45;;;;;;;;;;5046344;28;20049;-67
2021/06/28 10:56:40;;;;;;;2.95;1.20;;;;;;;;;;5033100;28;20046;-70
2021/06/28 10:59:18;;;;;;;1.33;1.00;;;;;;;;;;5029236;28;20095;-66
2021/06/28 11:01:47;;;;;;;1.10;1.00;;;;;;;;;;5045790;28;20061;-65
2021/06/28 11:04:17;;;;;;;3.00;1.13;;;;;;;;;;5035607;28;20605;-68
2021/06/28 11:07:03;;;;;;;1.38;1.00;;;;;;;;;;5027085;28;20056;-69
2021/06/28 11:09:35;;;;;;;2.78;1.33;;;;;;;;;;5029933;28;20060;-67
2021/06/28 11:12:04;;;;;;;2.33;1.55;;;;;;;;;;5035231;28;20130;-68
2021/06/28 11:14:42;;;;;;;1.85;0.93;;;;;;;;;;5038573;28;20052;-67
2021/06/28 11:17:12;;;;;;;1.77;1.08;;;;;;;;;;5047252;28;20064;-69
2021/06/28 11:19:59;;;;;;;1.60;1.20;;;;;;;;;;5029330;28;20481;-71
2021/06/28 11:22:36;;;;;;;1.48;1.15;;;;;;;;;;5032409;28;20049;-65
2021/06/28 11:25:07;;;;;;;2.30;0.90;;;;;;;;;;5035684;28;20490;-68
2021/06/28 11:27:36;;;;;;;1.48;1.27;;;;;;;;;;5028649;28;20107;-66
2021/06/28 11:30:05;;;;;;;4.13;1.20;;;;;;;;;;5039587;28;20507;-69
2021/06/28 11:32:34;;;;;;;4.68;1.23;;;;;;;;;;5032720;28;20094;-66
2021/06/28 11:35:03;;;;;;;2.45;1.60;;;;;;;;;;5033474;28;20131;-65
2021/06/28 11:37:34;;;;;;;2.58;1.40;;;;;;;;;;5026715;28;20055;-66
2021/06/28 11:40:06;;;;;;;2.13;1.17;;;;;;;;;;5031014;28;20049;-65
2021/06/28 11:42:37;;;;;;;1.25;1.10;;;;;;;;;;5029038;28;20348;-72
2021/06/28 11:45:08;;;;;;;1.20;1.10;;;;;;;;;;5027682;28;20049;-67
2021/06/28 11:47:55;;;;;;;2.85;1.30;;;;;;;;;;5035760;28;20068;-69
2021/06/28 11:50:28;;;;;;;2.92;1.10;;;;;;;;;;5029923;28;20128;-67
2021/06/28 11:52:59;;;;;;;1.10;1.00;;;;;;;;;;5029987;28;20050;-66
2021/06/28 11:55:29;;;;;;;2.28;1.30;;;;;;;;;;5026815;28;20119;-69
2021/06/28 11:57:58;;;;;;;2.00;1.10;;;;;;;;;;5033840;28;20481;-69
2021/06/28 12:00:46;;;;;;;2.05;0.90;;;;;;;;;;5036563;28;20440;-65
2021/06/28 12:03:16;;;;;;;1.10;1.00;;;;;;;;;;5038305;28;20177;-71
2021/06/28 12:05:45;;;;;;;4.95;1.00;;;;;;;;;;5039044;28;20052;-68
2021/06/28 12:08:15;;;;;;;5.72;1.63;;;;;;;;;;5026653;28;20571;-69
2021/06/28 12:10:54;;;;;;;2.30;1.20;;;;;;;;;;5028543;28;20072;-66
2021/06/28 12:13:29;;;;;;;1.30;0.85;;;;;;;;;;5029855;28;20275;-70
2021/06/28 12:15:57;;;;;;;3.67;0.98;;;;;;;;;;5024961;28;20137;-65
2021/06/28 12:18:26;;;;;;;1.50;1.05;;;;;;;;;;5025774;28;20311;-66
2021/06/28 12:20:58;;;;;;;1.25;1.10;;;;;;;;;;5026666;28;20057;-71
2021/06/28 12:23:26;;;;;;;3.38;1.20;;;;;;;;;;5029105;28;20166;-66
2021/06/28 12:25:56;;;;;;;1.67;0.98;;;;;;;;;;5044185;28;20076;-66
2021/06/28 12:28:29;;;;;;;1.42;1.33;;;;;;;;;;5027681;28;20456;-66
2021/06/28 12:31:00;;;;;;;1.50;1.10;;;;;;;;;;5026552;28;20124;-68
2021/06/28 12:33:30;;;;;;;1.45;1.10;;;;;;;;;;5031409;28;20508;-68
2021/06/28 12:35:59;;;;;;;2.70;1.35;;;;;;;;;;5026471;28;20061;-69
2021/06/28 12:38:29;;;;;;;2.47;1.27;;;;;;;;;;5030200;28;20558;-66
2021/06/28 12:40:59;;;;;;;1.50;1.17;;;;;;;;;;5039612;28;20045;-65
2021/06/28 12:43:46;;;;;;;2.21;1.21;;;;;;;;;;2605442;28;10003751;-69
2021/06/28 12:46:19;;;;;;;5.47;1.50;;;;;;;;;;3644327;28;10001323;-72
2021/06/28 12:48:48;;;;;;;4.25;1.00;;;;;;;;;;5033671;28;20045;-66
2021/06/28 12:51:21;;;;;;;3.03;1.35;;;;;;;;;;5026930;28;20052;-67
2021/06/28 12:53:50;;;;;;;1.40;1.30;;;;;;;;;;5026538;28;20107;-66
2021/06/28 12:56:20;;;;;;;1.88;1.73;;;;;;;;;;5038957;28;20049;-65
2021/06/28 12:58:52;;;;;;;2.80;1.38;;;;;;;;;;5029053;28;20072;-71
2021/06/28 13:01:31;;;;;;;1.63;1.27;;;;;;;;;;5037812;28;20405;-66
2021/06/28 13:04:15;;;;;;;3.50;1.50;;;;;;;;;;4272302;28;21173726;-68
2021/06/28 13:06:43;;;;;;;1.20;1.10;;;;;;;;;;5032186;28;20046;-64
2021/06/28 13:09:16;;;;;;;1.55;1.20;;;;;;;;;;5026928;28;20136;-67
2021/06/28 13:11:51;;;;;;;3.05;1.30;;;;;;;;;;5030475;28;20046;-72
2021/06/28 13:14:26;;;;;;;4.25;1.45;;;;;;;;;;5035061;28;20053;-66
2021/06/28 13:17:05;;;;;;;4.35;1.42;;;;;;;;;;5035627;28;20052;-67
2021/06/28 13:19:34;;;;;;;2.05;1.40;;;;;;;;;;5030351;28;20119;-68
2021/06/28 13:22:05;;;;;;;2.75;1.20;;;;;;;;;;5029240;28;20056;-67
2021/06/28 13:24:34;;;;;;;7.93;1.50;;;;;;;;;;5025263;28;20106;-67
2021/06/28 13:27:06;;;;;;;2.90;1.52;;;;;;;;;;5035764;28;20053;-68
2021/06/28 13:29:36;;;;;;;1.55;1.30;;;;;;;;;;5035789;28;20103;-65
2021/06/28 13:32:05;;;;;;;2.13;1.23;;;;;;;;;;5030232;28;20050;-72
2021/06/28 13:34:45;;;;;;;2.45;1.00;;;;;;;;;;5038006;28;20049;-70
2021/06/28 13:37:16;;;;;;;5.10;1.48;;;;;;;;;;5035685;28;20048;-75
2021/06/28 13:39:49;;;;;;;2.47;1.20;;;;;;;;;;5031578;28;20111;-72
2021/06/28 13:42:24;;;;;;;1.90;1.38;;;;;;;;;;5026928;28;20449;-73
2021/06/28 13:44:56;;;;;;;2.45;1.30;;;;;;;;;;5039040;28;20072;-70
2021/06/28 13:47:25;;;;;;;3.22;1.45;;;;;;;;;;5037114;28;20468;-73
2021/06/28 13:49:54;;;;;;;3.25;1.38;;;;;;;;;;5041164;28;20060;-72
2021/06/28 13:52:22;;;;;;;1.52;1.30;;;;;;;;;;5037975;28;20575;-72
2021/06/28 13:54:50;;;;;;;1.65;1.20;;;;;;;;;;5037831;28;20049;-75
2021/06/28 13:57:19;;;;;;;2.13;1.20;;;;;;;;;;5031628;28;20054;-71
2021/06/28 13:59:49;;;;;;;2.00;1.23;;;;;;;;;;5032228;28;20060;-72
2021/06/28 14:02:17;;;;;;;2.13;1.30;;;;;;;;;;5034076;28;20147;-73
2021/06/28 14:04:46;;;;;;;1.48;1.00;;;;;;;;;;5031066;28;20552;-74
2021/06/28 14:07:14;;;;;;;1.50;1.17;;;;;;;;;;5031444;28;20053;-70
2021/06/28 14:09:43;;;;;;;2.60;1.27;;;;;;;;;;5032686;28;20540;-70
2021/06/28 14:12:12;;;;;;;3.72;1.20;;;;;;;;;;5031217;28;20130;-69
2021/06/28 14:14:41;;;;;;;1.40;1.20;;;;;;;;;;5035704;28;20102;-72
2021/06/28 14:17:10;;;;;;;1.90;1.08;;;;;;;;;;5050082;28;20053;-70
2021/06/28 14:19:39;;;;;;;1.73;1.63;;;;;;;;;;5038356;28;20080;-70
2021/06/28 14:22:08;;;;;;;1.20;1.10;;;;;;;;;;5045657;28;20102;-71
2021/06/28 14:24:36;;;;;;;2.63;1.15;;;;;;;;;;5039827;28;20088;-71
2021/06/28 14:27:05;;;;;;;3.28;1.40;;;;;;;;;;5034945;28;20529;-70
2021/06/28 14:29:34;;;;;;;2.67;1.42;;;;;;;;;;5030265;28;20104;-77
2021/06/28 14:32:02;;;;;;;2.63;1.20;;;;;;;;;;5029851;28;20128;-71
2021/06/28 14:34:33;;;;;;;2.80;1.15;;;;;;;;;;5029936;28;20119;-70
2021/06/28 14:37:02;;;;;;;1.35;1.20;;;;;;;;;;5029238;28;20045;-69
2021/06/28 14:39:30;;;;;;;8.30;1.30;;;;;;;;;;5032257;28;20083;-71
2021/06/28 14:41:58;;;;;;;1.65;1.30;;;;;;;;;;5039054;28;20037;-73
2021/06/28 14:44:27;;;;;;;4.57;1.40;;;;;;;;;;5032422;28;20056;-69
2021/06/28 14:46:56;;;;;;;2.90;1.10;;;;;;;;;;5035516;28;20061;-71
2021/06/28 14:49:25;;;;;;;2.00;1.15;;;;;;;;;;5033597;28;20047;-68
2021/06/28 14:51:55;;;;;;;3.03;1.25;;;;;;;;;;5038805;28;20134;-69
2021/06/28 14:54:24;;;;;;;4.60;1.80;;;;;;;;;;5035641;28;20115;-72
2021/06/28 14:56:52;;;;;;;3.00;1.48;;;;;;;;;;5030246;28;20519;-70
2021/06/28 14:59:21;;;;;;;4.07;1.77;;;;;;;;;;5033545;28;20159;-68
2021/06/28 15:01:50;;;;;;;1.45;1.13;;;;;;;;;;5048740;28;20056;-70
2021/06/28 15:04:18;;;;;;;3.65;1.30;;;;;;;;;;5049093;28;20049;-70
2021/06/28 15:06:46;;;;;;;1.75;1.30;;;;;;;;;;5035049;28;20077;-73